Strona główna
METAR-TAF:

METAR-TAF

Lotnisko :

Baza lotnicza

Linköping, Szwecja

Szerokość geograficzna: 58-24N, Długość geograficzna: 015-31E, wysokość: 93 m

Aktualna obserwacja pogody

Raport powstał 17 minut temu, godzina 20:20 UTC
Wiatr 1 kt od wschód
Temperatura 16°C
Wilgotność 72%
Ciśnienie 1012 hPa
Widzialność 10 km lub więcej

METAR: ESCF 172020Z AUTO 09001KT 9999 NCD 16/11 Q1012

czas: 22:37 (20:37 UTC)

Prognoza

Raport powstał 11 godziny i 17 minut temu, godzina 09:20 UTC
Prognoza ważna od 17 godzina 09 UTC do 17 godzina 12 UTC
Wiatr 8 kt od północ
Widzialność 10 km lub więcej
Przerywane chmury na wysokości 2500 ft

TAF: ESCF 170920Z 1709/1712 35008KT 9999 BKN025

Obserwacja i prognoza pogody dla ponad 4000 lotnisk (raport METAR i TAF).

Dostępne stacje oznaczono żółtymi i czerwonymi punktami na mapie.

Najedź kursorem aby zobaczyć nazwę stacji.

Kliknij aby zobaczyć obserwacje i prognozy pogody.

Aby zmienić mapę: kliknij na zielony przycisk z czarnym krzyżykiem, aby powiększyć; na zielony przycisk z myślnikiem, aby pomniejszyć; na zielone strzałki, aby przejść do map sąsiednich.


METAR-TAF: